Time;durP1;ratioP1;P1;durP2;ratioP2;P2;SDS_P1;SDS_P2;PMS_P1;PMS_P2;Temp;Humidity;BMP_temperature;BMP_pressure;BME280_temperature;BME280_humidity;BME280_pressure;Samples;Min_cycle;Max_cycle;Signal;HPM_P1;HPM_P2
2023/10/11 00:01:29;;;;;;;6.10;2.90;;;;;;;9.00;33.46;101598.79;108143;1286;22024;-57
2023/10/11 00:03:56;;;;;;;5.30;2.60;;;;;;;8.95;33.57;101598.55;108142;1282;21985;-70
2023/10/11 00:06:24;;;;;;;5.30;2.10;;;;;;;8.93;33.66;101596.95;108130;1281;22008;-71
2023/10/11 00:08:50;;;;;;;4.10;1.90;;;;;;;8.91;33.53;101592.36;108185;1273;21991;-71
2023/10/11 00:11:23;;;;;;;7.30;2.60;;;;;;;8.90;33.67;101592.00;108103;1273;22012;-58
2023/10/11 00:13:49;;;;;;;5.40;2.40;;;;;;;8.90;33.70;101593.21;108184;1284;22032;-72
2023/10/11 00:16:17;;;;;;;5.80;2.40;;;;;;;8.90;33.71;101591.81;108252;1283;22834;-70
2023/10/11 00:18:43;;;;;;;7.40;2.40;;;;;;;8.90;33.68;101593.05;108278;1284;21995;-57
2023/10/11 00:21:10;;;;;;;6.50;2.40;;;;;;;8.90;33.65;101590.59;108202;1286;21987;-57
2023/10/11 00:23:42;;;;;;;4.30;1.90;;;;;;;8.90;33.70;101586.94;108156;1276;23059;-57
2023/10/11 00:26:08;;;;;;;4.90;2.00;;;;;;;8.91;33.70;101585.17;108122;1286;21987;-56
2023/10/11 00:28:34;;;;;;;7.30;2.10;;;;;;;8.91;33.67;101585.89;108176;1281;21994;-56
2023/10/11 00:31:01;;;;;;;6.90;2.70;;;;;;;8.91;33.78;101584.48;108111;1287;22065;-57
2023/10/11 00:33:33;;;;;;;7.40;2.20;;;;;;;8.89;33.75;101586.73;108136;1281;24359;-56
2023/10/11 00:36:01;;;;;;;8.20;2.60;;;;;;;8.87;33.79;101587.21;108150;1280;22000;-71
2023/10/11 00:38:42;;;;;;;6.80;3.50;;;;;;;8.85;33.73;101589.64;108091;1281;21994;-71
2023/10/11 00:41:12;;;;;;;6.30;2.30;;;;;;;8.81;33.79;101590.64;108239;1286;24322;-72
2023/10/11 00:43:50;;;;;;;4.90;1.80;;;;;;;8.76;33.79;101585.68;108136;1286;22028;-57
2023/10/11 00:46:19;;;;;;;7.80;3.00;;;;;;;8.72;33.79;101584.22;108139;1286;22032;-72
2023/10/11 00:48:54;;;;;;;5.30;2.10;;;;;;;8.68;33.80;101579.27;108351;1286;21996;-57
2023/10/11 00:51:30;;;;;;;6.20;2.10;;;;;;;8.65;33.75;101582.02;108130;1286;21992;-56
2023/10/11 00:53:56;;;;;;;5.50;2.00;;;;;;;8.61;33.96;101588.60;108079;1286;21946;-71
2023/10/11 00:56:22;;;;;;;6.00;2.50;;;;;;;8.58;34.01;101591.53;108103;1286;22027;-71
2023/10/11 00:58:49;;;;;;;5.60;2.30;;;;;;;8.54;33.96;101591.84;107350;1278;1002987;-71
2023/10/11 01:01:15;;;;;;;6.70;2.80;;;;;;;8.50;33.93;101592.80;108084;1285;22043;-57
2023/10/11 01:03:41;;;;;;;5.90;1.90;;;;;;;8.47;34.05;101594.84;108169;1286;23071;-57
2023/10/11 01:06:10;;;;;;;7.10;1.90;;;;;;;8.40;33.95;101594.36;108154;1286;21942;-56
2023/10/11 01:08:39;;;;;;;4.50;2.20;;;;;;;8.37;34.16;101593.97;108131;1286;21990;-56
2023/10/11 01:11:08;;;;;;;4.10;2.00;;;;;;;8.33;34.15;101597.58;107360;1287;1002357;-71
2023/10/11 01:13:33;;;;;;;7.50;2.00;;;;;;;8.28;34.02;101600.64;108263;1282;21992;-66
2023/10/11 01:16:05;;;;;;;6.20;2.20;;;;;;;8.25;34.36;101603.91;108087;1284;21994;-59
2023/10/11 01:18:32;;;;;;;6.20;2.30;;;;;;;8.20;34.45;101605.75;108131;1282;22027;-70
2023/10/11 01:21:03;;;;;;;9.00;2.50;;;;;;;8.15;34.17;101609.70;107339;1284;1002798;-70
2023/10/11 01:23:29;;;;;;;9.60;2.10;;;;;;;8.12;34.46;101607.89;108114;1286;21997;-71
2023/10/11 01:25:55;;;;;;;6.50;2.00;;;;;;;8.10;34.32;101608.04;108071;1277;21992;-70
2023/10/11 01:28:22;;;;;;;6.10;2.00;;;;;;;8.08;34.50;101611.84;108114;1280;21988;-57
2023/10/11 01:30:47;;;;;;;6.70;2.30;;;;;;;8.05;34.42;101615.98;108294;1287;22040;-71
2023/10/11 01:33:16;;;;;;;5.70;2.20;;;;;;;8.06;34.48;101618.45;108162;1286;23644;-71
2023/10/11 01:35:42;;;;;;;4.60;1.80;;;;;;;8.05;34.55;101618.09;108088;1279;23611;-70
2023/10/11 01:38:08;;;;;;;5.80;2.20;;;;;;;8.05;34.43;101616.86;107338;1280;1003143;-57
2023/10/11 01:40:34;;;;;;;5.70;2.90;;;;;;;8.07;34.59;101616.17;108172;1286;21998;-59
2023/10/11 01:43:02;;;;;;;4.30;2.10;;;;;;;8.07;34.50;101620.91;108156;1281;21994;-70
2023/10/11 01:45:28;;;;;;;5.60;2.10;;;;;;;8.06;34.52;101625.09;108188;1286;22751;-57
2023/10/11 01:47:56;;;;;;;6.10;2.20;;;;;;;8.05;34.64;101624.55;108200;1286;21998;-71
2023/10/11 01:50:24;;;;;;;5.40;2.30;;;;;;;8.05;34.63;101633.98;108271;1287;22000;-71
2023/10/11 01:52:50;;;;;;;7.60;2.20;;;;;;;8.03;34.63;101632.55;108271;1281;21992;-57
2023/10/11 01:55:17;;;;;;;5.40;2.10;;;;;;;8.02;34.81;101639.17;107381;1287;1002934;-57
2023/10/11 01:57:45;;;;;;;5.90;2.70;;;;;;;8.01;34.80;101643.52;108254;1287;22000;-71
2023/10/11 02:00:15;;;;;;;5.80;2.60;;;;;;;7.98;34.72;101645.41;108144;1285;22024;-58
2023/10/11 02:02:47;;;;;;;5.70;2.00;;;;;;;7.98;34.78;101651.34;108161;1287;23084;-57
2023/10/11 02:05:17;;;;;;;8.90;2.60;;;;;;;7.98;34.88;101650.11;108164;1287;21991;-70
2023/10/11 02:07:42;;;;;;;7.40;2.40;;;;;;;7.99;34.83;101651.88;108122;1281;21999;-57
2023/10/11 02:10:12;;;;;;;6.10;2.50;;;;;;;7.99;34.78;101651.35;108113;1286;21992;-58
2023/10/11 02:12:46;;;;;;;5.50;2.50;;;;;;;7.98;34.84;101656.40;108131;1286;23074;-57
2023/10/11 02:15:21;;;;;;;5.40;2.30;;;;;;;7.98;34.77;101659.71;108186;1287;22025;-57
2023/10/11 02:17:51;;;;;;;6.80;2.10;;;;;;;7.97;34.96;101661.45;108088;1287;22007;-57
2023/10/11 02:20:22;;;;;;;9.50;2.40;;;;;;;7.96;34.94;101664.94;108169;1278;21999;-70
2023/10/11 02:22:52;;;;;;;7.20;2.70;;;;;;;7.96;34.87;101672.95;108199;1273;22002;-57
2023/10/11 02:25:19;;;;;;;4.30;1.70;;;;;;;7.96;34.92;101677.34;108125;1287;21997;-58
2023/10/11 02:27:46;;;;;;;8.60;2.20;;;;;;;7.96;35.05;101678.91;108179;1287;22086;-71
2023/10/11 02:30:13;;;;;;;3.90;1.90;;;;;;;7.95;34.99;101678.91;108107;1280;21991;-70
2023/10/11 02:32:42;;;;;;;6.20;2.40;;;;;;;7.94;35.00;101685.35;108282;1284;23721;-71
2023/10/11 02:35:12;;;;;;;14.70;3.60;;;;;;;7.92;35.11;101688.81;108205;1280;22767;-70
2023/10/11 02:37:37;;;;;;;5.40;2.60;;;;;;;7.90;34.96;101690.87;108122;1276;22000;-57
2023/10/11 02:40:08;;;;;;;6.70;2.40;;;;;;;7.89;35.12;101695.55;108111;1273;22002;-70
2023/10/11 02:42:37;;;;;;;7.50;2.20;;;;;;;7.88;35.20;101701.48;108145;1273;22001;-58
2023/10/11 02:45:07;;;;;;;5.10;2.50;;;;;;;7.85;35.16;101707.55;107413;1287;1002661;-57
2023/10/11 02:47:35;;;;;;;5.40;2.10;;;;;;;7.81;35.12;101708.17;108114;1286;21994;-71
2023/10/11 02:50:05;;;;;;;11.70;2.50;;;;;;;7.81;35.18;101709.02;108085;1275;22087;-69
2023/10/11 02:52:37;;;;;;;5.70;2.30;;;;;;;7.80;35.22;101709.89;108105;1287;22278;-70
2023/10/11 02:55:20;;;;;;;8.50;2.20;;;;;;;7.79;35.17;101710.23;108168;1283;21996;-70
2023/10/11 02:57:46;;;;;;;5.80;2.30;;;;;;;7.77;35.22;101711.05;108202;1278;21997;-57
2023/10/11 03:00:21;;;;;;;6.90;2.40;;;;;;;7.75;35.29;101711.02;108190;1286;21999;-58
2023/10/11 03:02:56;;;;;;;5.90;3.20;;;;;;;7.71;35.16;101706.75;108091;1277;21980;-57
2023/10/11 03:05:27;;;;;;;16.90;6.40;;;;;;;7.68;35.17;101713.67;108174;1280;22057;-71
2023/10/11 03:08:13;;;;;;;16.80;6.70;;;;;;;7.64;35.16;101714.96;108228;1284;21995;-71
2023/10/11 03:10:45;;;;;;;7.70;4.10;;;;;;;7.58;35.34;101716.95;108172;1276;22176;-71
2023/10/11 03:13:19;;;;;;;11.30;3.80;;;;;;;7.54;35.34;101716.67;108204;1280;22086;-72
2023/10/11 03:15:46;;;;;;;13.00;3.70;;;;;;;7.51;35.41;101719.06;108205;1288;24339;-71
2023/10/11 03:18:12;;;;;;;13.00;3.30;;;;;;;7.48;35.39;101721.64;107366;1288;1003063;-56
2023/10/11 03:20:38;;;;;;;14.60;3.60;;;;;;;7.46;35.64;101727.01;107337;1286;1002753;-70
2023/10/11 03:23:25;;;;;;;6.90;2.80;;;;;;;7.45;35.67;101725.75;108195;1287;22472;-69
2023/10/11 03:25:53;;;;;;;7.40;2.90;;;;;;;7.43;35.70;101726.92;108144;1288;22107;-70
2023/10/11 03:28:26;;;;;;;7.20;2.70;;;;;;;7.41;35.75;101727.05;108139;1288;21990;-57
2023/10/11 03:30:53;;;;;;;6.20;2.50;;;;;;;7.38;35.64;101722.44;108133;1283;22002;-70
2023/10/11 03:33:19;;;;;;;11.60;3.80;;;;;;;7.34;35.63;101719.90;108193;1287;21980;-57
2023/10/11 03:35:45;;;;;;;15.70;3.20;;;;;;;7.29;35.67;101724.17;108081;1288;22004;-70
2023/10/11 03:38:17;;;;;;;8.50;2.40;;;;;;;7.24;35.71;101727.04;108198;1288;21995;-70
2023/10/11 03:40:55;;;;;;;14.10;4.30;;;;;;;7.21;35.60;101728.52;108145;1287;22006;-57
2023/10/11 03:43:24;;;;;;;12.80;3.30;;;;;;;7.22;35.90;101729.77;108089;1288;21998;-58
2023/10/11 03:45:49;;;;;;;10.10;2.90;;;;;;;7.24;35.92;101731.58;108191;1279;21999;-70
2023/10/11 03:48:20;;;;;;;12.40;3.50;;;;;;;7.26;35.98;101731.80;108088;1286;21997;-56
2023/10/11 03:50:48;;;;;;;11.40;3.20;;;;;;;7.26;35.97;101733.54;108123;1285;21998;-57
2023/10/11 03:53:15;;;;;;;19.00;3.20;;;;;;;7.26;36.06;101734.23;108211;1281;21980;-57
2023/10/11 03:55:46;;;;;;;13.10;2.90;;;;;;;7.26;35.83;101735.81;108190;1285;21997;-69
2023/10/11 03:58:32;;;;;;;39.40;6.00;;;;;;;7.27;35.93;101736.34;108158;1276;22030;-57
2023/10/11 04:01:10;;;;;;;18.10;3.60;;;;;;;7.27;35.89;101739.33;107417;1288;1003172;-68
2023/10/11 04:03:35;;;;;;;11.40;2.80;;;;;;;7.25;35.73;101743.98;107400;1286;1002756;-69
2023/10/11 04:06:01;;;;;;;7.60;2.80;;;;;;;7.23;35.96;101748.83;108140;1283;21992;-57
2023/10/11 04:08:27;;;;;;;12.80;2.70;;;;;;;7.24;36.08;101752.86;107363;1286;1002378;-69
2023/10/11 04:10:53;;;;;;;13.70;3.10;;;;;;;7.24;36.09;101756.69;108152;1288;22000;-57
2023/10/11 04:13:25;;;;;;;7.00;3.10;;;;;;;7.24;36.16;101762.46;108123;1276;22000;-69
2023/10/11 04:15:54;;;;;;;9.00;3.20;;;;;;;7.24;36.24;101762.48;108134;1276;22002;-69
2023/10/11 04:23:42;;;;;;;10.60;2.50;;;;;;;7.32;36.25;101767.87;108111;1286;22036;-69
2023/10/11 04:26:16;;;;;;;9.30;2.80;;;;;;;7.34;36.23;101772.64;108106;1282;21993;-57
2023/10/11 04:28:42;;;;;;;6.90;2.60;;;;;;;7.37;36.38;101778.30;108122;1288;21997;-57
2023/10/11 04:33:54;;;;;;;9.40;3.10;;;;;;;7.45;36.30;101783.55;108144;1283;23028;-56
2023/10/11 04:36:20;;;;;;;11.40;3.50;;;;;;;7.49;36.25;101786.96;108171;1288;22007;-62
2023/10/11 04:38:47;;;;;;;12.60;3.50;;;;;;;7.54;36.58;101790.05;108160;1288;22012;-57
2023/10/11 04:41:17;;;;;;;7.20;3.20;;;;;;;7.59;36.31;101793.65;107439;1280;1003605;-56
2023/10/11 04:43:50;;;;;;;10.00;2.80;;;;;;;7.62;36.31;101793.89;108137;1287;22014;-73
2023/10/11 04:46:16;;;;;;;16.30;3.10;;;;;;;7.66;36.48;101799.23;107383;1277;1002925;-72
2023/10/11 04:48:44;;;;;;;17.00;3.30;;;;;;;7.71;36.57;101804.23;107379;1286;1002627;-72
2023/10/11 04:53:58;;;;;;;14.20;3.60;;;;;;;7.93;36.80;101810.65;108093;1286;21995;-71
2023/10/11 04:59:19;;;;;;;69.40;7.60;;;;;;;8.39;36.41;101818.23;108094;1288;21996;-57
2023/10/11 05:04:30;;;;;;;25.10;4.70;;;;;;;8.47;36.44;101826.62;108160;1287;21999;-56
2023/10/11 05:06:56;;;;;;;38.70;6.10;;;;;;;8.51;36.56;101828.11;108143;1283;21989;-56
2023/10/11 05:09:38;;;;;;;34.50;4.70;;;;;;;8.57;36.47;101831.04;108133;1287;22094;-56
2023/10/11 05:12:19;;;;;;;30.00;5.80;;;;;;;8.66;36.56;101832.95;108110;1287;22035;-56
2023/10/11 05:19:46;;;;;;;10.70;3.40;;;;;;;9.07;36.75;101845.42;108126;1279;23622;-73
2023/10/11 05:22:48;;;;;;;10.70;2.60;;;;;;;9.21;36.64;101845.84;108187;1276;22060;-56
2023/10/11 05:32:48;;;;;;;11.00;3.10;;;;;;;9.61;36.55;101852.08;108090;1286;21999;-74
2023/10/11 05:51:39;;;;;;;7.60;3.10;;;;;;;10.65;36.66;101868.05;108120;1288;22013;-72
2023/10/11 05:54:07;;;;;;;13.90;3.10;;;;;;;10.83;36.69;101868.58;107352;1286;1002498;-73
2023/10/11 05:56:39;;;;;;;9.60;3.10;;;;;;;11.02;36.86;101872.27;108112;1276;22000;-56
2023/10/11 05:59:09;;;;;;;10.90;4.20;;;;;;;11.22;36.94;101873.52;108134;1288;22007;-57
2023/10/11 06:01:35;;;;;;;8.20;3.50;;;;;;;11.42;36.84;101875.10;107351;1281;1002603;-72
2023/10/11 06:04:03;;;;;;;6.40;3.00;;;;;;;11.62;36.82;101874.19;108104;1281;22050;-57
2023/10/11 06:06:38;;;;;;;6.50;2.70;;;;;;;11.83;36.72;101878.21;108125;1283;21976;-73
2023/10/11 06:09:16;;;;;;;7.20;3.10;;;;;;;12.06;36.57;101877.13;108123;1286;22018;-59
2023/10/11 06:11:47;;;;;;;10.30;3.00;;;;;;;12.30;36.55;101875.15;108087;1276;21986;-57
2023/10/11 06:14:16;;;;;;;7.00;2.80;;;;;;;12.54;36.54;101882.28;108113;1288;22029;-57
2023/10/11 06:16:43;;;;;;;9.50;3.10;;;;;;;12.78;36.64;101883.95;108186;1288;21991;-70
2023/10/11 06:19:18;;;;;;;11.30;3.50;;;;;;;13.03;36.56;101883.46;108143;1281;23055;-57
2023/10/11 06:22:31;;;;;;;9.00;3.00;;;;;;;13.29;36.40;101884.91;107386;1288;1002374;-71
2023/10/11 06:24:37;;;;;;;7.00;2.80;;;;;;;13.57;36.21;101882.64;108050;1288;23145;-57
2023/10/11 06:29:54;;;;;;;7.50;2.80;;;;;;;14.08;36.00;101882.02;108117;1283;22071;-57
2023/10/11 06:32:21;;;;;;;10.40;2.80;;;;;;;14.30;35.75;101881.06;108084;1286;22002;-58
2023/10/11 06:34:48;;;;;;;9.10;3.00;;;;;;;14.52;35.62;101886.80;108171;1285;21988;-57
2023/10/11 06:37:25;;;;;;;8.50;2.80;;;;;;;14.76;35.62;101885.11;108144;1279;21989;-71
2023/10/11 06:44:47;;;;;;;5.00;2.70;;;;;;;15.45;35.32;101875.08;108125;1275;22006;-57
2023/10/11 06:47:18;;;;;;;6.90;2.80;;;;;;;15.70;35.19;101876.80;108160;1288;22002;-57
2023/10/11 06:49:53;;;;;;;7.70;2.60;;;;;;;15.93;35.09;101875.70;108160;1288;23776;-70
2023/10/11 06:52:25;;;;;;;9.50;3.30;;;;;;;16.19;34.77;101875.77;108121;1282;22012;-57
2023/10/11 06:57:41;;;;;;;6.50;2.80;;;;;;;16.47;34.52;101877.20;108148;1283;21998;-68
2023/10/11 07:03:08;;;;;;;12.40;2.80;;;;;;;16.81;33.85;101880.45;108090;1288;21997;-69
2023/10/11 07:05:46;;;;;;;6.40;2.90;;;;;;;16.94;33.89;101878.50;108110;1280;21992;-58
2023/10/11 07:08:19;;;;;;;6.20;2.40;;;;;;;17.13;33.48;101881.95;108143;1282;21986;-69
2023/10/11 07:10:45;;;;;;;5.40;2.90;;;;;;;17.27;33.41;101881.56;108183;1279;21992;-69
2023/10/11 07:13:14;;;;;;;9.40;2.80;;;;;;;17.48;33.65;101882.64;108185;1284;22056;-58
2023/10/11 07:15:47;;;;;;;13.60;3.10;;;;;;;17.77;33.60;101884.26;108160;1288;21999;-68
2023/10/11 07:18:27;;;;;;;9.50;3.10;;;;;;;18.07;33.31;101884.80;108117;1288;23056;-57
2023/10/11 07:21:09;;;;;;;14.90;2.60;;;;;;;18.33;33.14;101881.44;108129;1276;22006;-58
2023/10/11 07:23:46;;;;;;;7.70;3.30;;;;;;;18.59;32.92;101883.38;108123;1282;22003;-68
2023/10/11 07:26:47;;;;;;;89.20;8.50;;;;;;;18.82;32.83;101885.89;108092;1283;22112;-56
2023/10/11 07:29:33;;;;;;;10.60;2.30;;;;;;;19.09;32.47;101880.84;108164;1283;22001;-69
2023/10/11 07:31:59;;;;;;;5.00;2.20;;;;;;;19.29;32.26;101877.85;108109;1287;22003;-67
2023/10/11 07:34:25;;;;;;;5.70;2.40;;;;;;;19.52;32.15;101875.67;108090;1281;21991;-60
2023/10/11 07:36:50;;;;;;;5.80;2.20;;;;;;;19.81;31.98;101877.60;108075;1288;22013;-68
2023/10/11 07:41:43;;;;;;;10.50;2.80;;;;;;;20.14;31.71;101880.64;108114;1288;21997;-68
2023/10/11 07:44:10;;;;;;;6.50;2.40;;;;;;;20.37;31.49;101880.51;108095;1277;21993;-57
2023/10/11 07:46:40;;;;;;;8.50;2.50;;;;;;;20.58;31.40;101880.94;108124;1286;22029;-69
2023/10/11 07:49:06;;;;;;;6.90;2.40;;;;;;;20.78;31.10;101872.33;108115;1280;21992;-57
2023/10/11 07:51:36;;;;;;;6.20;2.10;;;;;;;20.94;31.16;101874.67;108165;1280;21993;-57
2023/10/11 07:54:19;;;;;;;7.70;2.30;;;;;;;21.20;30.83;101877.41;108138;1280;22007;-57
2023/10/11 07:56:57;;;;;;;5.70;2.40;;;;;;;21.40;30.63;101876.94;108124;1286;22003;-57
2023/10/11 07:59:26;;;;;;;7.70;2.20;;;;;;;21.47;30.05;101867.92;108151;1286;22109;-57
2023/10/11 08:01:54;;;;;;;6.60;2.30;;;;;;;21.58;30.63;101865.08;108159;1280;22701;-67
2023/10/11 08:04:27;;;;;;;4.80;2.10;;;;;;;21.88;30.45;101866.20;108185;1286;22002;-57
2023/10/11 08:06:59;;;;;;;5.20;1.90;;;;;;;22.06;29.66;101861.59;108095;1280;21993;-69
2023/10/11 08:09:27;;;;;;;4.80;2.00;;;;;;;22.16;29.67;101859.97;108169;1276;21994;-57
2023/10/11 08:11:52;;;;;;;5.80;2.20;;;;;;;22.34;29.62;101857.34;108172;1286;23618;-68
2023/10/11 08:14:22;;;;;;;5.60;2.10;;;;;;;22.52;29.29;101861.48;108195;1286;21998;-68
2023/10/11 08:16:51;;;;;;;5.10;1.90;;;;;;;22.62;29.07;101862.00;108164;1273;22042;-69
2023/10/11 08:19:18;;;;;;;5.40;2.00;;;;;;;22.65;28.48;101862.78;108250;1280;22195;-67
2023/10/11 08:21:57;;;;;;;3.90;2.20;;;;;;;22.59;28.69;101856.91;108222;1276;21995;-67
2023/10/11 08:24:25;;;;;;;3.60;2.00;;;;;;;22.65;28.92;101855.64;108122;1274;21995;-56
2023/10/11 08:26:52;;;;;;;8.10;2.40;;;;;;;22.77;28.36;101859.98;108139;1286;21995;-67
2023/10/11 08:29:30;;;;;;;5.70;2.10;;;;;;;22.84;28.59;101857.36;108119;1281;22456;-67
2023/10/11 08:31:57;;;;;;;3.80;1.70;;;;;;;23.15;28.32;101859.89;108098;1280;22086;-68
2023/10/11 08:34:25;;;;;;;5.90;1.80;;;;;;;23.28;28.02;101857.23;108140;1280;22008;-57
2023/10/11 08:36:55;;;;;;;4.60;2.10;;;;;;;23.23;27.62;101854.92;108139;1276;22022;-56
2023/10/11 08:39:35;;;;;;;6.10;1.80;;;;;;;23.14;27.54;101854.20;108076;1286;21998;-68
2023/10/11 08:42:19;;;;;;;6.60;2.10;;;;;;;23.07;27.65;101855.00;108112;1287;22021;-67
2023/10/11 08:44:45;;;;;;;6.30;2.00;;;;;;;23.04;27.06;101854.04;108111;1283;21995;-68
2023/10/11 08:47:16;;;;;;;4.80;2.00;;;;;;;22.91;27.16;101854.23;108087;1287;22006;-68
2023/10/11 08:49:48;;;;;;;7.60;2.10;;;;;;;22.92;27.28;101855.45;108189;1283;21993;-68
2023/10/11 08:52:24;;;;;;;5.60;2.10;;;;;;;22.91;26.99;101856.38;108152;1286;21997;-57
2023/10/11 08:54:51;;;;;;;7.10;2.40;;;;;;;22.79;26.69;101857.75;108153;1277;21995;-68
2023/10/11 08:57:23;;;;;;;6.00;1.90;;;;;;;22.71;26.89;101855.95;108110;1277;22164;-68
2023/10/11 08:59:50;;;;;;;6.70;2.40;;;;;;;22.73;27.19;101857.99;108198;1286;21991;-68
2023/10/11 09:02:17;;;;;;;15.10;3.50;;;;;;;22.87;27.42;101856.36;108211;1286;21992;-57
2023/10/11 09:05:00;;;;;;;4.30;1.80;;;;;;;23.22;27.56;101857.07;108143;1283;22004;-68
2023/10/11 09:07:39;;;;;;;4.50;2.10;;;;;;;23.56;27.26;101851.52;108224;1286;21990;-57
2023/10/11 09:10:25;;;;;;;6.20;2.50;;;;;;;23.86;27.20;101844.48;108135;1286;22031;-68
2023/10/11 09:12:56;;;;;;;6.40;1.80;;;;;;;24.19;27.40;101839.42;108126;1286;21990;-68
2023/10/11 09:15:23;;;;;;;4.80;2.00;;;;;;;24.40;26.57;101846.70;108181;1286;22465;-57
2023/10/11 09:17:50;;;;;;;6.20;2.20;;;;;;;24.27;26.12;101843.55;108131;1286;22184;-65
2023/10/11 09:20:23;;;;;;;6.70;2.40;;;;;;;24.05;26.23;101841.14;108118;1279;21995;-56
2023/10/11 09:22:52;;;;;;;4.30;2.00;;;;;;;23.97;25.89;101834.16;108113;1279;22035;-68
2023/10/11 09:25:23;;;;;;;8.90;2.10;;;;;;;23.96;26.04;101834.57;108118;1286;22000;-56
2023/10/11 09:27:49;;;;;;;7.40;2.10;;;;;;;24.00;25.96;101835.11;108178;1286;21997;-69
2023/10/11 09:30:22;;;;;;;5.50;1.80;;;;;;;23.97;25.60;101832.52;108109;1286;21993;-68
2023/10/11 09:32:59;;;;;;;5.20;2.10;;;;;;;23.86;25.62;101833.54;108088;1281;21993;-58
2023/10/11 09:35:26;;;;;;;5.90;2.10;;;;;;;23.89;25.95;101828.96;108076;1286;22004;-67
2023/10/11 09:37:56;;;;;;;5.60;1.90;;;;;;;24.12;26.40;101823.99;108082;1286;22005;-58
2023/10/11 09:40:34;;;;;;;4.70;1.90;;;;;;;24.42;26.05;101820.23;108075;1283;21992;-68
2023/10/11 09:43:01;;;;;;;5.00;1.90;;;;;;;24.67;25.61;101817.08;108081;1287;22008;-57
2023/10/11 09:45:29;;;;;;;6.70;2.90;;;;;;;24.69;25.24;101818.61;108080;1288;21993;-58
2023/10/11 09:47:55;;;;;;;4.40;1.90;;;;;;;24.61;25.50;101819.52;108042;1288;22109;-67
2023/10/11 09:50:24;;;;;;;5.70;2.20;;;;;;;24.68;25.51;101817.05;108032;1288;22461;-68
2023/10/11 09:52:53;;;;;;;4.40;2.10;;;;;;;24.73;25.11;101814.48;108108;1288;22006;-67
2023/10/11 09:55:22;;;;;;;6.20;2.00;;;;;;;24.79;25.77;101810.76;108129;1288;21995;-69
2023/10/11 09:57:57;;;;;;;4.60;2.20;;;;;;;25.14;25.95;101799.48;107987;1288;21972;-58
2023/10/11 10:00:50;;;;;;;6.00;2.20;;;;;;;25.40;25.32;101802.83;108107;1288;23065;-69
2023/10/11 10:03:16;;;;;;;5.50;2.10;;;;;;;25.26;24.60;101801.94;108147;1286;22050;-59
2023/10/11 10:06:05;;;;;;;5.60;2.40;;;;;;;25.03;24.71;101801.34;107939;1280;22003;-65
2023/10/11 10:08:31;;;;;;;6.60;2.20;;;;;;;24.84;24.81;101798.48;108047;1287;21993;-69
2023/10/11 10:10:57;;;;;;;6.40;2.40;;;;;;;24.85;24.93;101795.91;108107;1276;21998;-58
2023/10/11 10:13:26;;;;;;;6.60;2.40;;;;;;;24.91;24.79;101795.27;108120;1276;21995;-58
2023/10/11 10:15:53;;;;;;;6.50;2.40;;;;;;;24.98;24.76;101790.63;108148;1287;21993;-60
2023/10/11 10:18:19;;;;;;;4.30;1.90;;;;;;;25.07;24.55;101790.52;108038;1276;22012;-69
2023/10/11 10:20:46;;;;;;;4.90;2.30;;;;;;;25.04;24.51;101784.00;108106;1276;22036;-58
2023/10/11 10:23:15;;;;;;;5.90;2.30;;;;;;;25.05;24.27;101782.71;108116;1280;22035;-57
2023/10/11 10:25:47;;;;;;;7.50;2.30;;;;;;;25.08;24.54;101782.20;108080;1286;22014;-58
2023/10/11 10:28:32;;;;;;;5.20;2.50;;;;;;;25.14;24.51;101780.64;108092;1279;22050;-69
2023/10/11 10:31:11;;;;;;;7.50;2.50;;;;;;;25.11;24.23;101778.31;108095;1287;22066;-58
2023/10/11 10:33:40;;;;;;;7.00;2.40;;;;;;;25.04;24.31;101771.08;108095;1287;23069;-58
2023/10/11 10:36:21;;;;;;;7.10;2.40;;;;;;;25.12;24.20;101769.82;108045;1282;22302;-68
2023/10/11 10:41:36;;;;;;;7.10;2.40;;;;;;;25.05;23.70;101775.02;108121;1281;21989;-58
2023/10/11 10:44:06;;;;;;;5.40;2.10;;;;;;;24.91;23.70;101771.23;108088;1286;22006;-69
2023/10/11 10:46:32;;;;;;;8.00;2.60;;;;;;;24.81;23.57;101769.02;108104;1288;21989;-59
2023/10/11 10:48:58;;;;;;;11.90;2.50;;;;;;;24.78;23.41;101765.58;108124;1288;22037;-68
2023/10/11 10:51:27;;;;;;;6.10;2.70;;;;;;;24.75;23.62;101768.77;108023;1288;22007;-58
2023/10/11 10:53:53;;;;;;;7.20;2.10;;;;;;;24.75;23.66;101764.81;107911;1288;22016;-58
2023/10/11 10:56:20;;;;;;;5.70;2.40;;;;;;;24.77;23.77;101757.55;108105;1282;22003;-68
2023/10/11 10:58:46;;;;;;;3.70;1.90;;;;;;;24.79;23.93;101752.97;108139;1285;21999;-58
2023/10/11 11:01:12;;;;;;;6.70;2.10;;;;;;;24.84;23.74;101752.00;108087;1288;21988;-68
2023/10/11 11:03:41;;;;;;;7.10;2.20;;;;;;;24.88;23.68;101749.48;108054;1286;21990;-58
2023/10/11 11:06:11;;;;;;;4.00;2.10;;;;;;;24.88;23.66;101750.20;109060;1288;21987;-56
2023/10/11 11:08:39;;;;;;;3.70;1.70;;;;;;;24.80;23.85;101750.75;108104;1285;21995;-56
2023/10/11 11:11:25;;;;;;;6.50;1.80;;;;;;;24.67;23.37;101751.23;107962;1288;21995;-57
2023/10/11 11:13:51;;;;;;;12.80;2.90;;;;;;;24.58;23.76;101741.61;108052;1286;21989;-64
2023/10/11 11:16:29;;;;;;;24.80;3.90;;;;;;;24.55;23.77;101748.73;108107;1276;22153;-66
2023/10/11 11:19:00;;;;;;;5.30;2.30;;;;;;;24.46;23.53;101749.23;108143;1286;22770;-57
2023/10/11 11:21:29;;;;;;;6.20;2.20;;;;;;;24.36;23.66;101748.24;108100;1282;21993;-57
2023/10/11 11:23:55;;;;;;;4.70;2.20;;;;;;;24.31;23.60;101749.56;108164;1287;21995;-67
2023/10/11 11:26:23;;;;;;;6.00;2.00;;;;;;;24.27;23.66;101753.36;108094;1281;22002;-60
2023/10/11 11:28:53;;;;;;;4.90;2.20;;;;;;;24.24;23.61;101750.43;107961;1288;177499;-67
2023/10/11 11:34:05;;;;;;;7.50;2.70;;;;;;;24.11;23.34;101754.09;108113;1285;21995;-66
2023/10/11 11:36:31;;;;;;;6.50;2.20;;;;;;;24.06;23.44;101752.17;108104;1286;21996;-66
2023/10/11 11:41:52;;;;;;;11.70;2.30;;;;;;;24.12;23.84;101745.08;108103;1288;21993;-65
2023/10/11 11:44:21;;;;;;;12.90;2.50;;;;;;;24.27;23.97;101741.48;108125;1287;22003;-57
2023/10/11 11:46:51;;;;;;;6.50;2.40;;;;;;;24.44;23.77;101738.88;108118;1283;22010;-58
2023/10/11 11:49:21;;;;;;;5.20;2.20;;;;;;;24.58;23.55;101731.55;108164;1281;22001;-66
2023/10/11 11:51:51;;;;;;;5.40;2.30;;;;;;;24.63;23.63;101730.23;108119;1288;21995;-57
2023/10/11 11:54:20;;;;;;;7.40;2.60;;;;;;;24.64;23.49;101734.64;108088;1276;21994;-57
2023/10/11 11:56:46;;;;;;;5.00;2.30;;;;;;;24.55;23.47;101733.64;108134;1286;22019;-65
2023/10/11 11:59:18;;;;;;;3.50;1.80;;;;;;;24.48;23.72;101731.69;108073;1288;22041;-67
2023/10/11 12:01:55;;;;;;;5.10;2.70;;;;;;;24.48;23.35;101731.33;108135;1279;21998;-57
2023/10/11 12:04:29;;;;;;;6.20;2.60;;;;;;;24.45;23.24;101728.95;108102;1286;21994;-57
2023/10/11 12:07:01;;;;;;;7.70;2.60;;;;;;;24.40;23.14;101724.21;108069;1286;22004;-67
2023/10/11 12:09:33;;;;;;;6.10;2.20;;;;;;;24.41;23.49;101724.30;108122;1284;21997;-57
2023/10/11 12:12:03;;;;;;;4.70;2.40;;;;;;;24.46;23.15;101723.73;108103;1286;22062;-67
2023/10/11 12:14:29;;;;;;;8.80;2.40;;;;;;;24.44;23.32;101722.04;108097;1286;23014;-66
2023/10/11 12:16:56;;;;;;;6.10;1.70;;;;;;;24.50;23.31;101722.24;108027;1286;22002;-65
2023/10/11 12:19:22;;;;;;;4.20;2.00;;;;;;;24.56;23.27;101718.03;108132;1286;21993;-58
2023/10/11 12:21:50;;;;;;;7.70;2.70;;;;;;;24.55;23.33;101721.29;108055;1287;22033;-58
2023/10/11 12:24:15;;;;;;;8.30;2.40;;;;;;;24.55;23.45;101723.66;108194;1287;22052;-67
2023/10/11 12:26:42;;;;;;;8.40;2.40;;;;;;;24.61;23.66;101716.34;108014;1286;22004;-58
2023/10/11 12:29:12;;;;;;;3.80;1.90;;;;;;;24.71;23.49;101714.75;108036;1286;22056;-58
2023/10/11 12:31:39;;;;;;;5.40;2.10;;;;;;;24.76;22.86;101714.18;108031;1286;21995;-68
2023/10/11 12:34:06;;;;;;;6.90;2.50;;;;;;;24.55;22.80;101713.77;108061;1287;21998;-65
2023/10/11 12:36:32;;;;;;;4.20;2.10;;;;;;;24.36;23.14;101712.88;108152;1282;22033;-58
2023/10/11 12:38:58;;;;;;;8.00;2.40;;;;;;;24.24;23.37;101712.59;108066;1286;22052;-67
2023/10/11 12:41:23;;;;;;;5.20;1.90;;;;;;;24.19;23.54;101711.04;108106;1286;21994;-66
2023/10/11 12:43:49;;;;;;;3.90;1.70;;;;;;;24.20;23.76;101707.06;108133;1284;21993;-57